KBOS/BOS METAR and TAF weather

Enter ICAO airport designator
Station Type Date Time Source
KBOS METAR 2019/04/25 21:54 UTC NOAA

KBOS 252154Z 10016KT 10SM FEW045 SCT130 BKN240 10/05 A2993 RMK AO2 SLP135 T01000050


Station Type Date Time Source
KBOS Decoded METAR 2019/04/25 21:54 UTC NOAA

BOSTON LOGAN INTERNATIONAL, MA, United States (KBOS) 42-22N 071-01W 54M
Apr 25, 2019 - 05:54 PM EDT / 2019.04.25 2154 UTC
Wind: from the E (100 degrees) at 18 MPH (16 KT):0
Visibility: 10 mile(s):0
Sky conditions: mostly cloudy
Temperature: 50.0 F (10.0 C)
Dew Point: 41.0 F (5.0 C)
Relative Humidity: 71%
Pressure (altimeter): 29.93 in. Hg (1013 hPa)
ob: KBOS 252154Z 10016KT 10SM FEW045 SCT130 BKN240 10/05 A2993 RMK AO2 SLP135 T01000050
cycle: 22

Station Type Date Time Source
KBOS TAF 2019/04/25 20:27 UTC NOAA

TAF
AMD KBOS 252019Z 2520/2624 10013KT P6SM FEW040 SCT250
FM260100 15007KT P6SM SCT120 BKN250
FM260800 14006KT P6SM BKN090
FM261100 12008KT P6SM -SHRA OVC050
FM261300 11011KT 5SM -SHRA BR OVC015
FM261500 10013KT 2SM -SHRA BR OVC005
FM261800 10013KT 2SM -SHRA BR OVC008

Example: see airport list